Time;durP1;ratioP1;P1;durP2;ratioP2;P2;SDS_P1;SDS_P2;PMS_P1;PMS_P2;Temp;Humidity;BMP_temperature;BMP_pressure;BME280_temperature;BME280_humidity;BME280_pressure;Samples;Min_cycle;Max_cycle;Signal;HPM_P1;HPM_P2
2021/11/06 00:01:12;;;;;;;10.90;9.20;;;9.20;99.90;;;;;;4980196;28;20563;-48
2021/11/06 00:03:38;;;;;;;15.90;11.27;;;9.20;99.90;;;;;;4978206;28;20194;-52
2021/11/06 00:06:03;;;;;;;10.60;9.13;;;9.20;99.90;;;;;;4978201;28;20582;-48
2021/11/06 00:08:29;;;;;;;11.83;9.73;;;9.20;99.90;;;;;;4975623;28;20205;-49
2021/11/06 00:10:55;;;;;;;14.47;11.07;;;9.30;99.90;;;;;;4974916;28;20273;-51
2021/11/06 00:13:20;;;;;;;12.23;10.40;;;9.20;99.90;;;;;;4978550;28;20546;-53
2021/11/06 00:15:46;;;;;;;11.70;9.43;;;9.10;99.90;;;;;;4979556;28;20179;-53
2021/11/06 00:18:12;;;;;;;17.20;10.80;;;9.00;99.90;;;;;;4977328;28;20193;-51
2021/11/06 00:20:38;;;;;;;12.67;10.30;;;8.90;99.90;;;;;;4976806;28;20186;-51
2021/11/06 00:23:03;;;;;;;15.53;11.07;;;8.80;99.90;;;;;;4975017;28;20469;-52
2021/11/06 00:25:30;;;;;;;12.23;10.43;;;8.60;99.90;;;;;;4979701;28;20181;-51
2021/11/06 00:27:56;;;;;;;16.70;11.30;;;8.70;99.90;;;;;;4976438;28;20214;-50
2021/11/06 00:30:22;;;;;;;12.70;11.27;;;8.80;99.90;;;;;;4976564;28;21057;-50
2021/11/06 00:32:48;;;;;;;12.93;10.50;;;8.70;99.90;;;;;;4979051;28;20332;-52
2021/11/06 00:35:15;;;;;;;13.40;10.17;;;8.80;99.90;;;;;;4973229;28;20523;-53
2021/11/06 00:37:43;;;;;;;13.00;10.07;;;8.90;99.90;;;;;;4974824;28;20313;-53
2021/11/06 00:40:11;;;;;;;15.30;11.07;;;8.50;99.90;;;;;;4977947;28;20990;-48
2021/11/06 00:42:37;;;;;;;17.03;12.40;;;8.50;99.90;;;;;;4973339;28;20812;-52
2021/11/06 00:45:04;;;;;;;11.13;9.47;;;8.60;99.90;;;;;;4979024;28;20437;-52
2021/11/06 00:47:30;;;;;;;11.87;9.80;;;8.80;99.90;;;;;;4977075;28;20791;-50
2021/11/06 00:49:56;;;;;;;12.33;10.17;;;9.00;99.90;;;;;;4978978;28;20588;-52
2021/11/06 00:52:22;;;;;;;11.03;9.40;;;9.10;99.90;;;;;;4977134;28;20599;-50
2021/11/06 00:54:47;;;;;;;19.80;8.90;;;8.90;99.90;;;;;;4974035;28;20190;-50
2021/11/06 00:57:13;;;;;;;11.07;8.80;;;8.80;99.90;;;;;;4976383;28;20255;-51
2021/11/06 00:59:39;;;;;;;11.40;9.53;;;8.80;99.90;;;;;;4974772;28;20186;-52
2021/11/06 01:02:04;;;;;;;13.23;9.00;;;8.80;99.90;;;;;;4979258;28;20225;-53
2021/11/06 01:04:30;;;;;;;11.87;8.67;;;9.00;99.90;;;;;;4974056;28;20197;-50
2021/11/06 01:06:56;;;;;;;9.73;8.47;;;9.10;99.90;;;;;;4975950;28;20562;-50
2021/11/06 01:09:22;;;;;;;16.33;9.30;;;9.00;99.90;;;;;;4976596;28;20304;-48
2021/11/06 01:11:47;;;;;;;13.10;9.50;;;9.00;99.90;;;;;;4977548;28;20750;-50
2021/11/06 01:14:13;;;;;;;9.77;8.20;;;9.30;99.90;;;;;;4976316;28;20221;-51
2021/11/06 01:16:39;;;;;;;12.13;9.27;;;9.10;99.90;;;;;;4974560;28;20192;-48
2021/11/06 01:19:04;;;;;;;8.87;7.97;;;8.90;99.90;;;;;;4977598;28;20190;-47
2021/11/06 01:21:30;;;;;;;11.20;7.83;;;8.90;99.90;;;;;;4976181;28;20252;-53
2021/11/06 01:23:56;;;;;;;9.60;8.20;;;8.90;99.90;;;;;;4977525;28;20198;-52
2021/11/06 01:26:23;;;;;;;11.70;8.83;;;8.90;99.90;;;;;;4973517;28;20252;-55
2021/11/06 01:28:49;;;;;;;9.97;7.90;;;8.90;99.90;;;;;;4976110;28;20508;-53
2021/11/06 01:31:14;;;;;;;9.40;8.07;;;8.90;99.90;;;;;;4977683;28;20497;-51
2021/11/06 01:33:40;;;;;;;9.93;7.57;;;8.70;99.90;;;;;;4973744;28;21028;-49
2021/11/06 01:36:06;;;;;;;13.07;8.40;;;8.70;99.90;;;;;;4975775;28;20564;-50
2021/11/06 01:38:32;;;;;;;9.73;8.37;;;8.80;99.90;;;;;;4978181;28;20201;-50
2021/11/06 01:40:58;;;;;;;8.93;7.67;;;8.90;99.90;;;;;;4957155;28;20735;-50
2021/11/06 01:43:24;;;;;;;10.87;7.97;;;9.00;99.90;;;;;;4975700;28;20433;-50
2021/11/06 01:45:58;;;;;;;9.53;7.47;;;9.20;99.90;;;;;;4975907;28;21038;-54
2021/11/06 01:48:24;;;;;;;9.30;7.97;;;9.00;99.90;;;;;;4972648;28;20885;-52
2021/11/06 01:50:50;;;;;;;8.37;7.50;;;9.00;99.90;;;;;;4978820;28;20429;-50
2021/11/06 01:53:16;;;;;;;8.90;7.43;;;8.90;99.90;;;;;;4977530;28;20686;-51
2021/11/06 01:55:41;;;;;;;8.63;7.20;;;9.10;99.90;;;;;;4980936;28;20539;-50
2021/11/06 01:58:07;;;;;;;10.73;8.50;;;9.20;99.90;;;;;;4982381;28;20570;-48
2021/11/06 02:00:33;;;;;;;8.77;7.53;;;8.80;99.90;;;;;;4986425;28;20227;-49
2021/11/06 02:02:58;;;;;;;9.93;7.40;;;8.80;99.90;;;;;;4980275;28;20220;-50
2021/11/06 02:05:24;;;;;;;8.87;7.43;;;8.90;99.90;;;;;;4979732;28;20193;-48
2021/11/06 02:07:50;;;;;;;8.43;7.53;;;8.80;99.90;;;;;;4974256;28;20213;-50
2021/11/06 02:10:16;;;;;;;8.60;7.20;;;8.60;99.90;;;;;;4979770;28;21003;-51
2021/11/06 02:12:43;;;;;;;9.10;7.57;;;8.50;99.90;;;;;;4965647;28;20507;-50
2021/11/06 02:15:11;;;;;;;9.87;7.03;;;8.30;99.90;;;;;;4976504;28;20567;-51
2021/11/06 02:17:37;;;;;;;9.03;7.90;;;8.20;99.90;;;;;;4981639;28;20429;-49
2021/11/06 02:20:05;;;;;;;10.07;6.90;;;8.20;99.90;;;;;;4977356;28;20956;-49
2021/11/06 02:22:31;;;;;;;9.20;7.63;;;8.30;99.90;;;;;;4983014;28;20281;-48
2021/11/06 02:24:57;;;;;;;9.20;7.40;;;8.30;99.90;;;;;;4977710;28;20476;-49
2021/11/06 02:27:24;;;;;;;10.20;7.47;;;8.00;99.90;;;;;;4978315;28;20820;-51
2021/11/06 02:29:50;;;;;;;9.17;7.70;;;8.10;99.90;;;;;;4959326;28;20558;-48
2021/11/06 02:32:16;;;;;;;11.20;9.27;;;7.90;99.90;;;;;;4978858;28;20452;-52
2021/11/06 02:34:42;;;;;;;10.07;8.57;;;7.90;99.90;;;;;;4975035;28;20517;-49
2021/11/06 02:37:07;;;;;;;8.03;7.10;;;8.00;99.90;;;;;;4977606;28;20512;-51
2021/11/06 02:39:33;;;;;;;9.10;7.87;;;8.00;99.90;;;;;;4978699;28;20190;-48
2021/11/06 02:42:06;;;;;;;8.90;7.13;;;7.90;99.90;;;;;;4979251;28;20206;-51
2021/11/06 02:44:32;;;;;;;11.50;8.10;;;7.90;99.90;;;;;;4976877;28;20186;-51
2021/11/06 02:46:58;;;;;;;10.87;7.90;;;7.90;99.90;;;;;;4980465;28;20556;-48
2021/11/06 02:49:24;;;;;;;10.30;7.47;;;7.90;99.90;;;;;;4975683;28;20473;-51
2021/11/06 02:51:50;;;;;;;8.10;7.23;;;7.90;99.90;;;;;;4980819;28;20587;-53
2021/11/06 02:54:16;;;;;;;9.90;7.07;;;7.90;99.90;;;;;;4976366;28;20444;-50
2021/11/06 02:56:42;;;;;;;9.03;7.33;;;7.80;99.90;;;;;;4978068;28;20237;-51
2021/11/06 02:59:07;;;;;;;8.40;7.50;;;7.80;99.90;;;;;;4979850;28;20429;-52
2021/11/06 03:01:33;;;;;;;11.30;7.43;;;8.10;99.90;;;;;;4980177;28;20217;-53
2021/11/06 03:03:59;;;;;;;8.97;6.90;;;7.90;99.90;;;;;;4976546;28;20198;-49
2021/11/06 03:06:24;;;;;;;11.37;8.00;;;7.80;99.90;;;;;;4976642;28;20437;-51
2021/11/06 03:08:50;;;;;;;9.67;7.57;;;8.10;99.90;;;;;;4980111;28;20711;-49
2021/11/06 03:11:16;;;;;;;9.10;6.73;;;8.10;99.90;;;;;;4978599;28;20210;-52
2021/11/06 03:13:44;;;;;;;10.07;7.70;;;8.20;99.90;;;;;;4979274;28;20660;-51
2021/11/06 03:16:10;;;;;;;11.63;8.43;;;7.90;99.90;;;;;;4977913;28;20266;-48
2021/11/06 03:18:36;;;;;;;10.07;8.27;;;7.90;99.90;;;;;;4976852;28;20452;-49
2021/11/06 03:21:03;;;;;;;9.67;7.73;;;8.20;99.90;;;;;;4979169;28;20466;-53
2021/11/06 03:23:29;;;;;;;12.53;8.17;;;8.20;99.90;;;;;;4977180;28;20430;-49
2021/11/06 03:25:55;;;;;;;11.70;8.10;;;8.30;99.90;;;;;;4979780;28;20424;-48
2021/11/06 03:28:21;;;;;;;10.93;7.90;;;8.20;99.90;;;;;;4976346;28;20613;-51
2021/11/06 03:30:47;;;;;;;10.70;8.33;;;8.40;99.90;;;;;;4967156;28;20429;-53
2021/11/06 03:33:12;;;;;;;8.63;7.30;;;8.50;99.90;;;;;;4980083;28;20986;-49
2021/11/06 03:35:38;;;;;;;7.93;7.07;;;8.50;99.90;;;;;;4974539;28;20438;-50
2021/11/06 03:38:03;;;;;;;9.67;8.37;;;8.40;99.90;;;;;;4975455;28;20229;-50
2021/11/06 03:40:29;;;;;;;8.87;7.97;;;8.20;99.90;;;;;;4978478;28;20198;-49
2021/11/06 03:42:55;;;;;;;10.77;7.93;;;8.20;99.90;;;;;;4976876;28;20218;-49
2021/11/06 03:45:21;;;;;;;9.67;7.30;;;8.20;99.90;;;;;;4977177;28;20194;-50
2021/11/06 03:47:46;;;;;;;9.37;8.40;;;8.10;99.90;;;;;;4976463;28;20942;-52
2021/11/06 03:50:12;;;;;;;13.03;8.30;;;8.00;99.90;;;;;;4967468;28;20329;-49
2021/11/06 03:52:38;;;;;;;13.10;8.60;;;8.00;99.90;;;;;;4977854;28;20691;-52
2021/11/06 03:55:05;;;;;;;11.30;9.00;;;8.10;99.90;;;;;;4979393;28;20678;-49
2021/11/06 03:57:31;;;;;;;12.53;8.13;;;8.20;99.90;;;;;;4983588;28;20566;-50
2021/11/06 03:59:56;;;;;;;10.40;8.37;;;8.10;99.90;;;;;;4980319;28;20532;-50
2021/11/06 04:02:22;;;;;;;14.50;9.10;;;8.00;99.90;;;;;;4978871;28;20314;-53
2021/11/06 04:04:48;;;;;;;10.70;8.10;;;7.90;99.90;;;;;;4966264;28;20193;-50
2021/11/06 04:07:13;;;;;;;8.90;8.00;;;7.90;99.90;;;;;;4978010;28;20643;-51
2021/11/06 04:09:39;;;;;;;11.67;8.90;;;7.90;99.90;;;;;;4974948;28;20222;-53
2021/11/06 04:12:05;;;;;;;9.93;7.70;;;7.90;99.90;;;;;;4975056;28;20214;-50
2021/11/06 04:14:30;;;;;;;9.87;8.83;;;7.90;99.90;;;;;;4975586;28;20185;-49
2021/11/06 04:16:56;;;;;;;11.17;9.03;;;8.00;99.90;;;;;;4965859;28;20441;-50
2021/11/06 04:19:22;;;;;;;11.33;9.00;;;8.00;99.90;;;;;;4972731;28;20186;-51
2021/11/06 04:21:49;;;;;;;9.23;7.80;;;8.00;99.90;;;;;;4979361;28;20449;-53
2021/11/06 04:24:15;;;;;;;10.73;8.57;;;8.00;99.90;;;;;;4977906;28;20674;-49
2021/11/06 04:26:41;;;;;;;11.80;9.70;;;8.00;99.90;;;;;;4978643;28;20465;-50
2021/11/06 04:29:06;;;;;;;12.67;9.63;;;7.80;99.90;;;;;;4974967;28;20496;-49
2021/11/06 04:31:32;;;;;;;15.07;9.90;;;7.70;99.90;;;;;;4977033;28;20206;-51
2021/11/06 04:34:00;;;;;;;9.97;8.43;;;7.50;99.90;;;;;;4975643;28;20185;-49
2021/11/06 04:36:25;;;;;;;10.53;8.30;;;7.70;99.90;;;;;;4974959;28;20189;-48
2021/11/06 04:38:51;;;;;;;8.80;7.33;;;7.90;99.90;;;;;;4978222;28;20444;-51
2021/11/06 04:41:16;;;;;;;15.03;8.57;;;8.00;99.90;;;;;;4975389;28;20206;-49
2021/11/06 04:43:42;;;;;;;11.50;8.17;;;8.10;99.90;;;;;;4975089;28;20243;-52
2021/11/06 04:46:08;;;;;;;8.60;7.33;;;8.00;99.90;;;;;;4976800;28;22328;-50
2021/11/06 04:48:33;;;;;;;8.63;7.73;;;7.90;99.90;;;;;;4977750;28;20577;-53
2021/11/06 04:50:59;;;;;;;9.07;7.13;;;7.80;99.90;;;;;;4978019;28;20199;-51
2021/11/06 04:53:24;;;;;;;10.27;7.93;;;7.70;99.90;;;;;;4975296;28;20205;-50
2021/11/06 04:55:50;;;;;;;10.73;8.47;;;7.60;99.90;;;;;;4975659;28;20548;-50
2021/11/06 04:58:16;;;;;;;8.90;8.00;;;7.70;99.90;;;;;;4973871;28;20201;-48
2021/11/06 05:00:42;;;;;;;9.67;7.67;;;7.80;99.90;;;;;;4977413;28;20325;-52
2021/11/06 05:03:07;;;;;;;12.50;8.97;;;7.70;99.90;;;;;;4975085;28;20514;-49
2021/11/06 05:05:33;;;;;;;9.77;8.73;;;7.60;99.90;;;;;;4975352;28;20190;-49
2021/11/06 05:07:59;;;;;;;9.93;8.20;;;7.50;99.90;;;;;;4976909;28;20583;-49
2021/11/06 05:10:24;;;;;;;10.20;8.80;;;7.60;99.90;;;;;;4974461;28;21264;-49
2021/11/06 05:12:50;;;;;;;11.40;9.10;;;7.70;99.90;;;;;;4978333;28;20548;-50
2021/11/06 05:15:16;;;;;;;8.43;7.30;;;7.60;99.90;;;;;;4974843;28;20634;-48
2021/11/06 05:17:42;;;;;;;11.50;9.10;;;7.70;99.90;;;;;;4975051;28;20456;-50
2021/11/06 05:20:08;;;;;;;12.00;9.30;;;7.50;99.90;;;;;;4974958;28;20437;-50
2021/11/06 05:22:34;;;;;;;13.07;8.63;;;7.40;99.90;;;;;;4977875;28;20279;-48
2021/11/06 05:25:04;;;;;;;10.63;7.87;;;7.30;99.90;;;;;;4974892;28;20437;-49
2021/11/06 05:27:30;;;;;;;9.03;7.50;;;7.40;99.90;;;;;;4974592;28;20198;-48
2021/11/06 05:29:56;;;;;;;9.90;8.57;;;7.50;99.90;;;;;;4979777;28;20966;-50
2021/11/06 05:32:22;;;;;;;10.87;8.20;;;7.60;99.90;;;;;;4978221;28;20472;-51
2021/11/06 05:34:48;;;;;;;10.87;7.70;;;7.70;99.90;;;;;;4980190;28;20429;-51
2021/11/06 05:37:13;;;;;;;10.77;7.80;;;7.60;99.90;;;;;;4978328;28;20690;-49
2021/11/06 05:39:39;;;;;;;9.60;7.37;;;7.50;99.90;;;;;;4980150;28;20191;-52
2021/11/06 05:42:05;;;;;;;10.83;7.77;;;7.60;99.90;;;;;;4979109;28;20214;-49
2021/11/06 05:44:30;;;;;;;9.90;8.40;;;7.50;99.90;;;;;;4980441;28;20658;-50
2021/11/06 05:46:56;;;;;;;9.37;7.80;;;7.50;99.90;;;;;;4981033;28;20549;-49
2021/11/06 05:49:21;;;;;;;9.40;7.40;;;7.50;99.90;;;;;;4978498;28;20213;-50
2021/11/06 05:51:47;;;;;;;13.47;8.23;;;7.50;99.90;;;;;;4980672;28;20205;-51
2021/11/06 05:54:14;;;;;;;11.10;8.10;;;7.30;99.90;;;;;;4977940;28;20681;-50
2021/11/06 05:56:41;;;;;;;11.93;7.90;;;7.10;99.90;;;;;;4976686;28;20572;-52
2021/11/06 05:59:08;;;;;;;9.73;7.13;;;7.10;99.90;;;;;;4977692;28;20854;-51
2021/11/06 06:01:34;;;;;;;11.00;6.83;;;7.20;99.90;;;;;;4976633;28;20457;-54
2021/11/06 06:04:00;;;;;;;9.27;7.67;;;7.10;99.90;;;;;;4978299;28;20528;-49
2021/11/06 06:06:26;;;;;;;9.47;7.53;;;7.10;99.90;;;;;;4982820;28;21025;-51
2021/11/06 06:08:52;;;;;;;8.10;6.40;;;7.00;99.90;;;;;;4980011;28;20765;-52
2021/11/06 06:11:18;;;;;;;8.90;7.47;;;7.10;99.90;;;;;;4977558;28;20547;-50
2021/11/06 06:13:43;;;;;;;8.80;6.40;;;7.20;99.90;;;;;;4966400;28;20608;-50
2021/11/06 06:16:09;;;;;;;9.43;7.40;;;7.30;99.90;;;;;;4978506;28;20193;-48
2021/11/06 06:18:35;;;;;;;7.77;6.47;;;7.50;99.90;;;;;;4978593;28;20192;-51
2021/11/06 06:21:00;;;;;;;9.93;6.40;;;7.70;99.90;;;;;;4981748;28;20571;-52
2021/11/06 06:23:26;;;;;;;6.77;5.83;;;7.60;99.90;;;;;;4984213;28;20189;-49
2021/11/06 06:25:52;;;;;;;7.70;5.97;;;7.70;99.90;;;;;;4979902;28;20189;-53
2021/11/06 06:28:17;;;;;;;7.10;5.80;;;7.70;99.90;;;;;;4982193;28;20565;-51
2021/11/06 06:30:43;;;;;;;7.40;5.63;;;7.40;99.90;;;;;;4968605;28;20194;-52
2021/11/06 06:33:08;;;;;;;6.20;5.43;;;7.50;99.90;;;;;;4982221;28;20210;-49
2021/11/06 06:35:34;;;;;;;6.10;5.00;;;7.50;99.90;;;;;;4981066;28;20277;-49
2021/11/06 06:38:03;;;;;;;7.43;5.50;;;7.60;99.90;;;;;;4979363;28;20232;-51
2021/11/06 06:40:29;;;;;;;6.27;4.67;;;7.50;99.90;;;;;;4978161;28;20182;-55
2021/11/06 06:42:55;;;;;;;7.23;5.80;;;7.50;99.90;;;;;;4981937;28;20468;-48
2021/11/06 06:45:22;;;;;;;6.67;5.43;;;7.50;99.90;;;;;;4981343;28;20421;-54
2021/11/06 06:47:48;;;;;;;8.77;5.67;;;7.50;99.90;;;;;;4980006;28;20559;-52
2021/11/06 06:50:14;;;;;;;6.40;5.10;;;7.10;99.90;;;;;;4979961;28;20456;-51
2021/11/06 06:52:40;;;;;;;7.43;5.93;;;6.90;99.90;;;;;;4975382;28;20497;-53
2021/11/06 06:55:06;;;;;;;7.07;5.67;;;6.80;99.90;;;;;;4977334;28;20476;-49
2021/11/06 06:57:32;;;;;;;10.53;5.87;;;6.80;99.90;;;;;;4977241;28;20244;-55
2021/11/06 06:59:58;;;;;;;6.67;5.80;;;7.00;99.90;;;;;;4976011;28;20453;-52
2021/11/06 07:02:23;;;;;;;9.37;5.67;;;7.00;99.90;;;;;;4977807;28;20216;-50
2021/11/06 07:04:49;;;;;;;5.80;5.03;;;7.20;99.90;;;;;;4963991;28;20190;-50
2021/11/06 07:07:15;;;;;;;7.00;5.33;;;7.20;99.90;;;;;;4978519;28;20190;-53
2021/11/06 07:09:41;;;;;;;6.43;5.23;;;7.10;99.90;;;;;;4977413;28;20205;-48
2021/11/06 07:12:07;;;;;;;5.40;4.80;;;7.40;99.90;;;;;;4981475;28;20313;-49
2021/11/06 07:14:33;;;;;;;6.93;5.43;;;7.60;99.90;;;;;;4975720;28;20453;-49
2021/11/06 07:16:59;;;;;;;8.90;6.30;;;7.80;99.90;;;;;;4975033;28;20806;-48
2021/11/06 07:19:25;;;;;;;9.00;5.50;;;7.90;99.90;;;;;;4976266;28;20446;-52
2021/11/06 07:21:51;;;;;;;7.43;5.20;;;7.90;99.90;;;;;;4977727;28;20324;-51
2021/11/06 07:24:17;;;;;;;6.40;5.00;;;7.90;99.90;;;;;;4978127;28;20440;-51
2021/11/06 07:26:43;;;;;;;6.73;5.03;;;7.90;99.90;;;;;;4972971;28;20447;-51
2021/11/06 07:29:08;;;;;;;5.17;4.63;;;7.80;99.90;;;;;;4965289;28;20236;-48
2021/11/06 07:31:34;;;;;;;5.93;4.37;;;7.90;99.90;;;;;;4974703;28;20306;-48
2021/11/06 07:34:00;;;;;;;8.17;5.60;;;7.80;99.90;;;;;;4977121;28;20190;-49
2021/11/06 07:36:26;;;;;;;5.77;5.10;;;7.70;99.90;;;;;;4975943;28;20259;-51
2021/11/06 07:38:55;;;;;;;5.60;4.60;;;7.60;99.90;;;;;;4975411;28;20202;-51
2021/11/06 07:41:22;;;;;;;6.07;4.90;;;7.70;99.90;;;;;;4980155;28;20225;-50
2021/11/06 07:43:48;;;;;;;7.03;5.07;;;7.60;99.90;;;;;;4976410;28;20874;-55
2021/11/06 07:46:14;;;;;;;6.50;4.63;;;7.80;99.90;;;;;;4976770;28;20492;-52
2021/11/06 07:48:40;;;;;;;5.83;5.03;;;7.90;99.90;;;;;;4970124;28;20504;-53
2021/11/06 07:51:05;;;;;;;6.03;4.77;;;7.90;99.90;;;;;;4971715;28;20808;-51
2021/11/06 07:53:31;;;;;;;22.60;14.40;;;8.10;99.90;;;;;;4973374;28;20185;-53
2021/11/06 07:55:57;;;;;;;11.23;7.40;;;8.10;99.90;;;;;;4972281;28;20257;-49
2021/11/06 07:58:23;;;;;;;7.83;5.73;;;7.90;99.90;;;;;;4974284;28;20198;-49
2021/11/06 08:00:49;;;;;;;7.63;5.27;;;7.60;99.90;;;;;;4974906;28;20209;-49
2021/11/06 08:03:15;;;;;;;8.37;5.63;;;7.50;99.90;;;;;;4972403;28;20526;-53
2021/11/06 08:05:41;;;;;;;8.37;7.00;;;7.50;99.90;;;;;;4974140;28;20956;-51
2021/11/06 08:08:07;;;;;;;6.80;6.20;;;7.60;99.90;;;;;;4975433;28;20537;-51
2021/11/06 08:10:33;;;;;;;8.20;5.27;;;7.50;99.90;;;;;;4974863;28;20470;-55
2021/11/06 08:13:03;;;;;;;16.70;6.23;;;7.50;99.90;;;;;;4976241;28;20228;-49
2021/11/06 08:15:29;;;;;;;7.23;5.80;;;7.40;99.90;;;;;;4975317;28;20598;-49
2021/11/06 08:17:55;;;;;;;9.10;7.10;;;7.30;99.90;;;;;;4974144;28;21257;-52
2021/11/06 08:20:25;;;;;;;8.10;6.53;;;7.10;99.90;;;;;;4975963;28;20449;-51
2021/11/06 08:22:52;;;;;;;11.33;6.27;;;7.40;99.90;;;;;;4974129;28;20214;-51
2021/11/06 08:25:19;;;;;;;10.70;7.17;;;7.40;99.90;;;;;;4971823;28;20522;-52
2021/11/06 08:27:50;;;;;;;9.83;6.60;;;7.00;99.90;;;;;;4976361;28;20426;-49
2021/11/06 08:30:21;;;;;;;7.80;7.00;;;6.70;99.90;;;;;;4974716;28;20824;-52
2021/11/06 08:32:48;;;;;;;7.57;5.70;;;6.90;99.90;;;;;;4961229;28;20981;-50
2021/11/06 08:35:14;;;;;;;8.07;6.00;;;7.00;99.90;;;;;;4978014;28;20431;-52
2021/11/06 08:37:40;;;;;;;10.70;6.80;;;6.80;99.90;;;;;;4972406;28;21127;-51
2021/11/06 08:40:08;;;;;;;10.00;8.00;;;7.00;99.90;;;;;;4976233;28;20484;-51
2021/11/06 08:42:35;;;;;;;9.37;8.00;;;7.00;99.90;;;;;;4978900;28;20913;-52
2021/11/06 08:45:04;;;;;;;11.07;9.50;;;7.10;99.90;;;;;;4975556;28;20437;-51
2021/11/06 08:47:29;;;;;;;12.03;10.17;;;7.10;99.90;;;;;;4977077;28;20490;-51
2021/11/06 08:49:55;;;;;;;13.70;11.33;;;7.00;99.90;;;;;;4975647;28;20498;-51
2021/11/06 08:52:20;;;;;;;15.60;11.50;;;7.10;99.90;;;;;;4975224;28;20226;-50
2021/11/06 08:54:48;;;;;;;13.10;10.33;;;7.10;99.90;;;;;;4974930;28;20248;-51
2021/11/06 08:57:14;;;;;;;13.30;10.60;;;7.20;99.90;;;;;;4980156;28;20213;-50
2021/11/06 08:59:40;;;;;;;12.00;10.00;;;7.00;99.90;;;;;;4973402;28;20551;-51
2021/11/06 09:02:06;;;;;;;11.83;9.33;;;7.10;99.90;;;;;;4978346;28;20205;-51
2021/11/06 09:04:31;;;;;;;10.13;7.83;;;7.20;99.90;;;;;;4979158;28;20286;-50
2021/11/06 09:06:58;;;;;;;11.43;8.80;;;7.20;99.90;;;;;;4984933;28;20488;-53
2021/11/06 09:09:24;;;;;;;12.60;9.13;;;7.40;99.90;;;;;;4981964;28;20679;-53
2021/11/06 09:11:53;;;;;;;9.00;7.30;;;7.50;99.90;;;;;;4981820;28;20464;-53
2021/11/06 09:14:18;;;;;;;7.27;6.30;;;7.50;99.90;;;;;;4977636;28;20177;-48
2021/11/06 09:16:45;;;;;;;8.83;6.43;;;7.40;99.90;;;;;;4995410;22;20507;-51
2021/11/06 09:19:11;;;;;;;9.10;6.43;;;7.60;99.90;;;;;;4986168;28;20190;-51
2021/11/06 09:21:38;;;;;;;10.30;8.20;;;7.80;99.90;;;;;;4987324;28;20444;-51
2021/11/06 09:24:04;;;;;;;11.20;7.37;;;7.90;99.90;;;;;;4980988;28;20812;-50
2021/11/06 09:26:39;;;;;;;10.93;7.63;;;7.90;99.90;;;;;;4986919;28;20463;-52
2021/11/06 09:29:07;;;;;;;8.10;7.07;;;8.10;99.90;;;;;;4985557;28;20482;-52
2021/11/06 09:31:33;;;;;;;9.70;6.83;;;8.10;99.90;;;;;;4986448;28;20433;-51
2021/11/06 09:33:59;;;;;;;10.80;7.27;;;8.00;99.90;;;;;;4977729;28;20449;-49
2021/11/06 09:36:25;;;;;;;7.63;6.67;;;8.20;99.90;;;;;;4970761;28;20429;-52
2021/11/06 09:38:52;;;;;;;6.77;6.07;;;8.00;99.90;;;;;;4980974;28;20456;-52
2021/11/06 09:41:18;;;;;;;10.10;6.93;;;8.10;99.90;;;;;;4981177;28;20519;-48
2021/11/06 09:43:45;;;;;;;9.20;7.83;;;8.10;99.90;;;;;;4986568;28;20441;-55
2021/11/06 09:46:11;;;;;;;9.03;6.97;;;8.10;99.90;;;;;;4982854;28;20432;-49
2021/11/06 09:48:38;;;;;;;8.20;7.10;;;8.20;99.90;;;;;;4984900;28;20541;-48
2021/11/06 09:51:05;;;;;;;7.73;6.27;;;8.20;99.90;;;;;;4989877;28;20193;-51
2021/11/06 09:53:33;;;;;;;7.97;6.30;;;8.20;99.90;;;;;;4986910;28;20479;-52
2021/11/06 09:55:59;;;;;;;8.10;6.20;;;8.20;99.90;;;;;;4988235;28;20857;-53
2021/11/06 09:58:25;;;;;;;8.27;6.40;;;8.30;99.90;;;;;;4982524;28;20475;-48
2021/11/06 10:00:52;;;;;;;8.50;7.10;;;8.50;99.90;;;;;;4984332;28;20528;-50
2021/11/06 10:03:17;;;;;;;6.93;6.23;;;8.60;99.90;;;;;;4980809;28;20482;-47
2021/11/06 10:05:53;;;;;;;13.83;6.90;;;8.50;99.90;;;;;;4967265;28;20479;-53
2021/11/06 10:08:21;;;;;;;8.90;6.93;;;8.50;99.90;;;;;;4985083;28;20220;-53
2021/11/06 10:10:48;;;;;;;9.77;7.50;;;8.50;99.90;;;;;;4982046;28;20850;-51
2021/11/06 10:13:14;;;;;;;8.50;7.27;;;8.50;99.90;;;;;;4982755;28;20436;-51
2021/11/06 10:15:46;;;;;;;7.63;6.73;;;8.60;99.90;;;;;;4986660;28;20475;-51
2021/11/06 10:18:23;;;;;;;8.30;7.30;;;8.70;99.90;;;;;;4977022;28;20217;-53
2021/11/06 10:21:01;;;;;;;14.60;7.47;;;8.60;99.90;;;;;;4984882;28;20441;-51
2021/11/06 10:23:30;;;;;;;7.80;7.00;;;8.50;99.90;;;;;;4987954;28;20527;-48
2021/11/06 10:26:28;;;;;;;6.93;6.23;;;8.50;99.90;;;;;;4983685;28;20516;-51
2021/11/06 10:29:03;;;;;;;11.80;6.60;;;8.70;99.90;;;;;;4961961;28;20982;-48
2021/11/06 10:31:28;;;;;;;9.07;8.03;;;8.90;99.90;;;;;;4985214;28;20435;-52
2021/11/06 10:33:54;;;;;;;9.30;7.10;;;8.90;99.90;;;;;;4986452;28;20446;-52
2021/11/06 10:36:27;;;;;;;8.47;7.00;;;9.00;99.90;;;;;;4986730;28;20730;-51
2021/11/06 10:39:10;;;;;;;8.87;7.67;;;8.90;99.90;;;;;;4982925;28;20217;-49
2021/11/06 10:41:39;;;;;;;7.87;6.87;;;9.00;99.90;;;;;;4971647;28;20539;-53
2021/11/06 10:44:06;;;;;;;8.17;7.27;;;9.10;99.90;;;;;;4983125;28;21143;-51
2021/11/06 10:46:33;;;;;;;10.03;7.37;;;9.20;99.90;;;;;;4976318;28;20543;-52
2021/11/06 10:49:00;;;;;;;9.77;7.33;;;8.90;99.90;;;;;;4982484;28;20557;-49
2021/11/06 10:51:25;;;;;;;9.30;7.83;;;9.00;99.90;;;;;;4980347;28;20436;-49
2021/11/06 10:53:57;;;;;;;7.63;6.83;;;9.00;99.90;;;;;;4982811;28;21034;-53
2021/11/06 10:56:41;;;;;;;8.43;7.17;;;9.00;99.90;;;;;;4974538;28;20186;-53
2021/11/06 10:59:17;;;;;;;10.10;7.70;;;9.20;99.90;;;;;;4983044;28;20456;-48
2021/11/06 11:01:46;;;;;;;8.30;6.90;;;9.30;99.90;;;;;;4983925;28;20528;-51
2021/11/06 11:04:15;;;;;;;9.60;8.43;;;9.40;99.90;;;;;;4985947;28;20474;-50
2021/11/06 11:06:49;;;;;;;9.07;7.13;;;9.60;99.90;;;;;;4983217;28;20749;-53
2021/11/06 11:09:21;;;;;;;11.40;6.90;;;9.50;99.90;;;;;;4983652;28;20472;-50
2021/11/06 11:11:48;;;;;;;9.23;7.53;;;9.40;99.90;;;;;;4982735;28;20499;-53
2021/11/06 11:14:22;;;;;;;8.63;6.90;;;9.40;99.90;;;;;;4980418;28;20430;-52
2021/11/06 11:16:55;;;;;;;10.10;7.50;;;9.40;99.90;;;;;;4981665;28;20556;-51
2021/11/06 11:19:39;;;;;;;10.20;7.57;;;9.60;99.90;;;;;;4982570;28;20456;-49
2021/11/06 11:23:22;;;;;;;10.87;8.17;;;9.70;99.90;;;;;;4984308;28;20535;-49
2021/11/06 11:25:28;;;;;;;10.13;7.60;;;9.70;99.90;;;;;;4962241;28;20441;-51
2021/11/06 11:27:53;;;;;;;8.90;7.13;;;9.60;99.90;;;;;;4977292;28;20483;-51
2021/11/06 11:30:19;;;;;;;8.20;7.33;;;9.60;99.90;;;;;;4974778;28;20440;-49
2021/11/06 11:32:44;;;;;;;10.07;7.83;;;9.60;99.90;;;;;;4981674;28;20290;-47
2021/11/06 11:35:10;;;;;;;10.30;8.70;;;9.70;99.90;;;;;;4980264;28;20204;-51
2021/11/06 11:37:36;;;;;;;9.70;7.70;;;9.80;99.90;;;;;;4981621;28;20292;-51
2021/11/06 11:40:03;;;;;;;11.00;8.63;;;9.90;99.90;;;;;;4976641;28;20198;-49
2021/11/06 11:42:52;;;;;;;11.30;8.40;;;10.10;99.90;;;;;;4979214;28;20812;-53
2021/11/06 11:45:45;;;;;;;10.70;8.37;;;10.20;99.90;;;;;;4987779;28;20440;-49
2021/11/06 11:48:19;;;;;;;11.60;8.17;;;10.50;99.90;;;;;;4983585;28;20889;-48
2021/11/06 11:50:46;;;;;;;9.07;8.13;;;10.70;99.90;;;;;;4986391;28;20451;-50
2021/11/06 11:53:24;;;;;;;10.77;8.67;;;11.00;99.90;;;;;;4971095;28;20451;-47
2021/11/06 11:55:51;;;;;;;8.80;7.73;;;11.10;99.90;;;;;;4983067;28;20583;-51
2021/11/06 11:58:23;;;;;;;8.57;7.40;;;11.20;99.90;;;;;;4984069;28;20453;-50
2021/11/06 12:01:02;;;;;;;12.27;8.20;;;12.40;99.90;;;;;;4981448;28;20453;-51
2021/11/06 12:03:31;;;;;;;8.37;7.50;;;14.80;99.90;;;;;;4966487;28;20941;-50
2021/11/06 12:05:57;;;;;;;7.80;7.00;;;16.70;99.90;;;;;;4982032;28;20500;-50
2021/11/06 12:08:28;;;;;;;9.43;7.17;;;18.00;99.90;;;;;;4979728;28;20595;-53
2021/11/06 12:10:56;;;;;;;9.80;7.13;;;18.80;99.90;;;;;;4975971;28;20186;-49
2021/11/06 12:13:28;;;;;;;8.23;7.43;;;20.40;99.90;;;;;;4979706;28;20449;-47
2021/11/06 12:16:06;;;;;;;7.60;6.90;;;21.10;99.90;;;;;;4981136;28;20444;-50
2021/11/06 12:18:34;;;;;;;7.60;6.90;;;21.50;99.90;;;;;;4981048;28;20852;-47
2021/11/06 12:21:16;;;;;;;8.67;7.87;;;23.30;99.90;;;;;;4981913;28;20446;-48
2021/11/06 12:23:43;;;;;;;7.43;6.73;;;25.10;96.30;;;;;;4982248;28;20435;-51
2021/11/06 12:26:26;;;;;;;8.40;7.70;;;25.70;91.60;;;;;;4984719;28;20459;-48
2021/11/06 12:29:15;;;;;;;7.53;6.83;;;25.70;84.90;;;;;;4982148;28;20496;-53
2021/11/06 12:31:46;;;;;;;7.20;6.60;;;25.30;81.90;;;;;;4979945;28;20441;-48
2021/11/06 12:34:35;;;;;;;8.03;7.33;;;25.40;77.00;;;;;;4962748;28;20460;-50
2021/11/06 12:37:04;;;;;;;7.37;6.67;;;26.40;76.60;;;;;;4982040;28;20542;-48
2021/11/06 12:39:47;;;;;;;7.97;7.37;;;25.60;73.70;;;;;;4984079;28;20444;-50
2021/11/06 12:42:25;;;;;;;7.57;6.87;;;26.40;73.90;;;;;;4986038;28;20441;-51
2021/11/06 12:45:06;;;;;;;8.80;7.93;;;27.20;72.20;;;;;;4982197;28;20531;-50
2021/11/06 12:47:36;;;;;;;7.80;7.00;;;27.40;65.20;;;;;;4985671;28;20535;-54
2021/11/06 12:50:19;;;;;;;7.10;6.50;;;27.30;65.90;;;;;;4982619;28;20861;-48
2021/11/06 12:52:45;;;;;;;7.23;6.63;;;26.80;65.10;;;;;;4984960;28;20455;-49